Time;durP1;ratioP1;P1;durP2;ratioP2;P2;SDS_P1;SDS_P2;PMS_P1;PMS_P2;Temp;Humidity;BMP_temperature;BMP_pressure;BME280_temperature;BME280_humidity;BME280_pressure;Samples;Min_cycle;Max_cycle;Signal;HPM_P1;HPM_P2
2022/01/12 00:01:07;;;;;;;150.25;44.10;;;3.70;99.90;;;;;;4856457;29;20060;-65
2022/01/12 00:03:33;;;;;;;154.80;44.20;;;3.70;99.90;;;;;;4839720;29;20068;-65
2022/01/12 00:06:00;;;;;;;158.43;44.05;;;3.70;99.90;;;;;;4839671;29;20107;-65
2022/01/12 00:08:26;;;;;;;161.70;44.17;;;3.70;99.90;;;;;;4855670;29;20060;-65
2022/01/12 00:10:52;;;;;;;146.82;41.88;;;3.70;99.90;;;;;;4856464;29;20077;-65
2022/01/12 00:13:18;;;;;;;158.25;44.35;;;3.70;99.90;;;;;;4855062;29;20124;-65
2022/01/12 00:15:43;;;;;;;181.10;45.70;;;3.80;99.90;;;;;;4852843;29;20089;-65
2022/01/12 00:18:09;;;;;;;182.82;47.47;;;3.70;99.90;;;;;;4853129;29;20058;-65
2022/01/12 00:20:35;;;;;;;200.55;49.28;;;3.70;99.90;;;;;;4836257;29;20057;-65
2022/01/12 00:23:01;;;;;;;166.15;44.22;;;3.70;99.90;;;;;;4834906;29;20050;-65
2022/01/12 00:25:30;;;;;;;191.30;46.30;;;3.80;99.90;;;;;;4835240;29;20412;-65
2022/01/12 00:33:25;;;;;;;210.23;47.85;;;3.80;99.90;;;;;;4853243;29;20117;-64
2022/01/12 00:35:53;;;;;;;222.75;48.42;;;3.70;99.90;;;;;;4845940;29;20075;-64
2022/01/12 00:38:21;;;;;;;201.55;45.63;;;3.70;99.90;;;;;;4853063;29;20054;-65
2022/01/12 00:40:53;;;;;;;214.25;47.70;;;3.80;99.90;;;;;;4852878;29;20088;-65
2022/01/12 00:43:20;;;;;;;253.68;52.38;;;3.80;99.90;;;;;;4836264;29;20057;-65
2022/01/12 00:45:47;;;;;;;230.10;48.67;;;3.80;99.90;;;;;;4836277;29;20046;-64
2022/01/12 00:48:14;;;;;;;231.02;50.13;;;3.80;99.90;;;;;;4836311;29;20451;-64
2022/01/12 00:50:40;;;;;;;231.23;48.35;;;3.80;99.90;;;;;;4835774;29;20060;-64
2022/01/12 00:53:06;;;;;;;191.00;47.92;;;3.80;99.90;;;;;;4852860;29;20122;-65
2022/01/12 00:55:32;;;;;;;256.08;49.90;;;3.80;99.90;;;;;;4836202;29;20423;-65
2022/01/12 00:57:59;;;;;;;282.90;51.88;;;3.80;99.90;;;;;;4835697;29;20498;-64
2022/01/12 01:00:26;;;;;;;255.88;50.80;;;3.80;99.90;;;;;;4835663;29;20058;-65
2022/01/12 01:02:56;;;;;;;230.63;50.58;;;3.80;99.90;;;;;;4835748;29;20038;-65
2022/01/12 01:05:23;;;;;;;249.18;50.55;;;3.90;99.90;;;;;;4835651;29;20081;-65
2022/01/12 01:07:50;;;;;;;248.15;48.92;;;3.90;99.90;;;;;;4850828;29;20110;-65
2022/01/12 01:10:26;;;;;;;;;;;3.90;99.90;;;;;;4853093;29;20049;-65
2022/01/12 01:12:52;;;;;;;292.73;52.60;;;3.80;99.90;;;;;;4835448;29;19924;-64
2022/01/12 01:15:27;;;;;;;252.17;49.43;;;3.90;99.90;;;;;;4850940;29;20068;-65
2022/01/12 01:26:05;;;;;;;357.98;56.50;;;3.90;99.90;;;;;;4835101;29;20054;-64
2022/01/12 01:28:36;;;;;;;308.97;52.47;;;3.90;99.90;;;;;;4850531;29;20061;-64
2022/01/12 01:31:04;;;;;;;328.92;52.97;;;3.90;99.90;;;;;;4822450;29;20054;-64
2022/01/12 01:33:32;;;;;;;374.45;54.03;;;4.00;99.90;;;;;;4851808;29;22447;-64
2022/01/12 01:35:58;;;;;;;331.92;53.15;;;4.00;99.90;;;;;;4835462;29;20057;-64
2022/01/12 01:38:24;;;;;;;447.00;56.67;;;3.90;99.90;;;;;;4834837;29;20046;-63
2022/01/12 01:40:49;;;;;;;380.05;51.42;;;4.00;99.90;;;;;;4835536;29;20054;-64
2022/01/12 01:53:57;;;;;;;287.48;49.55;;;4.00;99.90;;;;;;4821122;29;20054;-64
2022/01/12 01:56:24;;;;;;;349.30;51.90;;;4.00;99.90;;;;;;4835234;29;20057;-64
2022/01/12 01:58:50;;;;;;;257.65;44.83;;;4.10;99.90;;;;;;4834826;29;20141;-64
2022/01/12 02:01:16;;;;;;;269.57;47.80;;;4.10;99.90;;;;;;4835237;29;20087;-64
2022/01/12 02:03:43;;;;;;;222.00;43.35;;;4.10;99.90;;;;;;4834585;29;20053;-64
2022/01/12 02:06:10;;;;;;;222.43;43.42;;;4.10;99.90;;;;;;4851628;29;20076;-64
2022/01/12 02:08:36;;;;;;;;;;;4.10;99.90;;;;;;4851796;29;20152;-64
2022/01/12 02:11:02;;;;;;;187.27;39.42;;;4.10;99.90;;;;;;4834884;29;19928;-64
2022/01/12 02:13:28;;;;;;;173.45;39.28;;;4.10;99.90;;;;;;4816169;29;20103;-64
2022/01/12 02:15:55;;;;;;;197.85;41.58;;;4.10;99.90;;;;;;4830315;29;20056;-64
2022/01/12 02:40:29;;;;;;;150.00;35.17;;;4.20;99.90;;;;;;4817295;29;20077;-64
2022/01/12 02:50:57;;;;;;;148.23;33.85;;;4.30;99.90;;;;;;4832483;29;20436;-64
2022/01/12 02:53:39;;;;;;;117.47;31.85;;;4.30;99.90;;;;;;4846248;29;20066;-64
2022/01/12 02:56:10;;;;;;;136.13;32.35;;;4.30;99.90;;;;;;4832702;29;20072;-64
2022/01/12 02:58:37;;;;;;;147.77;32.65;;;4.30;99.90;;;;;;4831023;29;20051;-64
2022/01/12 03:03:34;;;;;;;114.55;31.13;;;4.20;99.90;;;;;;4831398;29;20058;-64
2022/01/12 03:06:03;;;;;;;155.80;31.80;;;4.20;99.90;;;;;;4830720;29;20089;-64
2022/01/12 03:08:36;;;;;;;205.48;33.38;;;4.10;99.90;;;;;;4830845;29;20099;-64
2022/01/12 03:11:10;;;;;;;210.88;34.00;;;4.10;99.90;;;;;;4832452;29;20061;-64
2022/01/12 03:13:36;;;;;;;138.27;29.48;;;4.00;99.90;;;;;;4832671;29;20047;-64
2022/01/12 03:16:11;;;;;;;129.88;28.35;;;3.90;99.90;;;;;;4830884;29;20121;-64
2022/01/12 03:18:37;;;;;;;110.57;28.02;;;3.80;99.90;;;;;;4832773;29;20050;-64
2022/01/12 03:21:03;;;;;;;123.55;27.42;;;3.80;99.90;;;;;;4845865;29;20057;-64
2022/01/12 03:23:29;;;;;;;;;;;3.70;99.90;;;;;;4832956;29;20161;-64
2022/01/12 03:25:55;;;;;;;123.57;28.08;;;3.60;99.90;;;;;;4830808;29;19929;-64
2022/01/12 03:28:20;;;;;;;120.67;26.73;;;3.60;99.90;;;;;;4832984;29;20477;-64
2022/01/12 03:31:05;;;;;;;154.73;30.63;;;3.60;99.90;;;;;;4833370;29;20050;-64
2022/01/12 03:33:39;;;;;;;116.53;27.73;;;3.50;99.90;;;;;;4833481;29;20298;-64
2022/01/12 03:39:00;;;;;;;137.30;31.70;;;3.50;99.90;;;;;;4796062;29;20202;-64
2022/01/12 03:41:32;;;;;;;141.85;32.35;;;3.40;99.90;;;;;;4796134;29;20091;-64
2022/01/12 03:43:59;;;;;;;138.30;31.98;;;3.40;99.90;;;;;;4793256;29;20531;-64
2022/01/12 03:46:33;;;;;;;148.43;32.42;;;3.40;99.90;;;;;;4793946;30;20055;-64
2022/01/12 03:48:59;;;;;;;162.02;33.22;;;3.40;99.90;;;;;;4811283;29;20086;-64
2022/01/12 03:51:24;;;;;;;148.43;31.70;;;3.40;99.90;;;;;;4814818;29;20051;-64
2022/01/12 03:53:50;;;;;;;167.25;32.15;;;3.30;99.90;;;;;;4796648;30;20059;-64
2022/01/12 03:56:16;;;;;;;167.05;32.80;;;3.30;99.90;;;;;;4797193;30;20071;-64
2022/01/12 03:58:42;;;;;;;167.10;31.67;;;3.30;99.90;;;;;;4809890;29;20055;-64
2022/01/12 04:01:07;;;;;;;203.02;32.53;;;3.30;99.90;;;;;;4785175;29;20067;-64
2022/01/12 04:03:39;;;;;;;129.60;31.00;;;3.20;99.90;;;;;;4814403;29;20127;-65
2022/01/12 04:08:49;;;;;;;160.40;32.55;;;3.20;99.90;;;;;;4813795;29;20055;-64
2022/01/12 04:11:15;;;;;;;166.43;31.80;;;3.20;99.90;;;;;;4770111;29;20119;-65
2022/01/12 04:13:42;;;;;;;164.50;32.80;;;3.20;99.90;;;;;;4799150;29;20447;-65
2022/01/12 04:16:08;;;;;;;278.73;36.90;;;3.20;99.90;;;;;;4840487;29;20092;-65
2022/01/12 04:18:35;;;;;;;170.80;33.70;;;3.20;99.90;;;;;;4836599;29;20085;-65
2022/01/12 04:21:03;;;;;;;224.45;32.50;;;3.10;99.90;;;;;;4836781;29;20057;-65
2022/01/12 04:23:30;;;;;;;208.77;33.55;;;3.10;99.90;;;;;;4835605;29;20053;-65
2022/01/12 04:25:58;;;;;;;158.57;30.77;;;3.10;99.90;;;;;;4836638;29;20066;-65
2022/01/12 04:28:25;;;;;;;199.95;34.10;;;3.10;99.90;;;;;;4852981;29;20102;-64
2022/01/12 04:30:54;;;;;;;178.55;32.88;;;3.10;99.90;;;;;;4831999;29;20157;-64
2022/01/12 04:33:21;;;;;;;219.38;32.75;;;3.00;99.90;;;;;;4835749;29;20133;-65
2022/01/12 04:35:51;;;;;;;276.52;37.47;;;3.00;99.90;;;;;;4853383;29;20042;-64
2022/01/12 04:38:18;;;;;;;243.95;34.38;;;3.00;99.90;;;;;;4836116;29;20077;-65
2022/01/12 04:40:45;;;;;;;231.38;35.83;;;3.00;99.90;;;;;;4836532;29;20053;-64
2022/01/12 04:43:11;;;;;;;167.25;29.55;;;3.00;99.90;;;;;;4836148;29;20390;-64
2022/01/12 04:50:46;;;;;;;394.77;40.75;;;2.80;99.90;;;;;;4836473;29;20089;-64
2022/01/12 04:53:13;;;;;;;414.85;44.15;;;2.90;99.90;;;;;;4852461;29;20056;-64
2022/01/12 04:55:40;;;;;;;616.17;58.20;;;2.90;99.90;;;;;;4836092;29;20193;-64
2022/01/12 04:58:06;;;;;;;474.77;45.03;;;2.90;99.90;;;;;;4836206;29;20383;-64
2022/01/12 05:00:33;;;;;;;357.33;34.17;;;2.90;99.90;;;;;;4852350;29;20434;-64
2022/01/12 05:13:42;;;;;;;633.38;53.50;;;2.70;99.90;;;;;;4852194;29;20506;-64
2022/01/12 05:16:11;;;;;;;383.02;36.70;;;2.70;99.90;;;;;;4852528;29;20058;-64
2022/01/12 05:18:38;;;;;;;556.72;45.33;;;2.70;99.90;;;;;;4852410;29;20042;-64
2022/01/12 05:21:05;;;;;;;440.85;36.17;;;2.70;99.90;;;;;;4835963;29;20053;-64
2022/01/12 05:23:31;;;;;;;457.02;37.97;;;2.60;99.90;;;;;;4834982;29;20073;-64
2022/01/12 05:25:59;;;;;;;680.38;55.40;;;2.60;99.90;;;;;;4852242;29;20053;-64
2022/01/12 05:28:26;;;;;;;480.02;40.95;;;2.60;99.90;;;;;;4832766;29;20054;-64
2022/01/12 05:30:54;;;;;;;360.33;34.78;;;2.50;99.90;;;;;;4835185;29;20073;-64
2022/01/12 05:33:23;;;;;;;185.90;26.33;;;2.50;99.90;;;;;;4835141;29;20148;-64
2022/01/12 05:35:49;;;;;;;220.15;29.13;;;2.40;99.90;;;;;;4834767;29;20069;-64
2022/01/12 05:38:15;;;;;;;95.97;21.27;;;2.40;99.90;;;;;;4851809;29;20054;-64
2022/01/12 05:40:46;;;;;;;74.13;20.10;;;2.30;99.90;;;;;;4835345;29;20053;-64
2022/01/12 05:43:21;;;;;;;61.03;19.65;;;2.30;99.90;;;;;;4835230;29;20078;-64
2022/01/12 05:45:47;;;;;;;85.72;20.33;;;2.30;99.90;;;;;;4835062;29;20121;-64
2022/01/12 05:50:41;;;;;;;73.68;19.45;;;2.30;99.90;;;;;;4835268;29;20113;-64
2022/01/12 05:53:07;;;;;;;65.72;19.33;;;2.30;99.90;;;;;;4834846;29;20089;-64
2022/01/12 05:55:33;;;;;;;69.53;17.73;;;2.30;99.90;;;;;;4835177;29;20058;-64
2022/01/12 05:57:59;;;;;;;75.18;19.50;;;2.30;99.90;;;;;;4836085;29;20064;-64
2022/01/12 06:00:27;;;;;;;139.10;22.40;;;2.20;99.90;;;;;;4851456;29;20065;-64
2022/01/12 06:02:53;;;;;;;64.43;18.10;;;2.20;99.90;;;;;;4816936;29;20062;-64
2022/01/12 06:05:20;;;;;;;53.38;17.88;;;2.20;99.90;;;;;;4801652;29;20113;-64
2022/01/12 06:07:47;;;;;;;93.78;20.08;;;2.20;99.90;;;;;;4850921;29;20117;-64
2022/01/12 06:10:14;;;;;;;93.63;19.80;;;2.10;99.90;;;;;;4835107;29;20117;-64
2022/01/12 06:12:40;;;;;;;70.13;19.02;;;2.10;99.90;;;;;;4850077;29;20106;-62
2022/01/12 06:15:07;;;;;;;76.70;18.98;;;2.10;99.90;;;;;;4819733;29;20054;-64
2022/01/12 06:17:32;;;;;;;;;;;2.00;99.90;;;;;;4851520;29;20125;-63
2022/01/12 06:19:58;;;;;;;74.90;18.75;;;2.00;99.90;;;;;;4851602;29;19985;-64
2022/01/12 06:22:24;;;;;;;82.77;20.20;;;2.00;99.90;;;;;;4834690;29;20062;-64
2022/01/12 06:24:51;;;;;;;66.05;17.33;;;2.00;99.90;;;;;;4834563;29;20062;-66
2022/01/12 06:27:20;;;;;;;72.07;18.63;;;2.10;99.90;;;;;;4831520;29;20065;-67
2022/01/12 06:32:31;;;;;;;102.45;19.25;;;2.10;99.90;;;;;;4850705;29;20073;-66
2022/01/12 06:34:57;;;;;;;109.70;20.83;;;2.10;99.90;;;;;;4849573;29;20071;-67
2022/01/12 06:37:23;;;;;;;177.43;23.38;;;2.10;99.90;;;;;;4851125;29;20384;-66
2022/01/12 06:39:50;;;;;;;119.95;17.90;;;2.10;99.90;;;;;;4850864;29;20129;-66
2022/01/12 06:42:15;;;;;;;107.43;19.95;;;2.20;99.90;;;;;;4850949;29;20188;-67
2022/01/12 06:44:41;;;;;;;64.47;15.50;;;2.20;99.90;;;;;;4834266;29;20117;-66
2022/01/12 06:47:07;;;;;;;190.80;20.77;;;2.20;99.90;;;;;;4850450;29;20078;-65
2022/01/12 06:49:32;;;;;;;124.80;18.40;;;2.20;99.90;;;;;;4834640;29;20057;-65
2022/01/12 06:52:01;;;;;;;89.23;16.40;;;2.10;99.90;;;;;;4850991;29;20310;-65
2022/01/12 06:54:27;;;;;;;157.45;20.45;;;2.10;99.90;;;;;;4834266;29;20388;-66
2022/01/12 06:56:53;;;;;;;104.75;18.63;;;2.10;99.90;;;;;;4850951;29;20069;-66
2022/01/12 06:59:19;;;;;;;177.87;21.93;;;2.10;99.90;;;;;;4834465;29;20058;-66
2022/01/12 07:01:45;;;;;;;85.97;16.52;;;2.10;99.90;;;;;;4833872;29;20048;-65
2022/01/12 07:04:11;;;;;;;116.63;17.23;;;2.20;99.90;;;;;;4834133;29;20054;-66
2022/01/12 07:06:37;;;;;;;103.93;15.35;;;2.20;99.90;;;;;;4850999;29;20109;-68
2022/01/12 07:09:04;;;;;;;90.38;14.20;;;2.20;99.90;;;;;;4849737;29;20050;-65
2022/01/12 07:11:30;;;;;;;159.30;19.40;;;2.20;99.90;;;;;;4849158;29;20102;-67
2022/01/12 07:13:56;;;;;;;133.55;17.95;;;2.20;99.90;;;;;;4834310;29;20057;-66
2022/01/12 07:16:22;;;;;;;154.32;16.88;;;2.20;99.90;;;;;;4850719;29;20046;-68
2022/01/12 07:18:48;;;;;;;103.70;16.17;;;2.20;99.90;;;;;;4851189;29;20053;-68
2022/01/12 07:21:13;;;;;;;95.90;15.37;;;2.20;99.90;;;;;;4834364;29;20053;-69
2022/01/12 07:23:39;;;;;;;179.27;21.23;;;2.20;99.90;;;;;;4850355;29;20069;-68
2022/01/12 07:26:05;;;;;;;130.33;17.13;;;2.20;99.90;;;;;;4855611;29;20355;-68
2022/01/12 07:28:31;;;;;;;91.13;16.38;;;2.30;99.90;;;;;;4849562;29;20050;-65
2022/01/12 07:30:57;;;;;;;100.27;14.90;;;2.30;99.90;;;;;;4836666;29;20069;-65
2022/01/12 07:33:25;;;;;;;284.25;23.15;;;2.20;99.90;;;;;;4821004;29;20041;-65
2022/01/12 07:35:51;;;;;;;206.52;19.77;;;2.20;99.90;;;;;;4836572;29;20095;-65
2022/01/12 07:38:17;;;;;;;158.73;18.38;;;2.30;99.90;;;;;;4836680;29;20046;-65
2022/01/12 07:40:43;;;;;;;221.02;21.05;;;2.20;99.90;;;;;;4837301;29;20057;-64
2022/01/12 07:43:09;;;;;;;252.18;22.23;;;2.30;99.90;;;;;;4836239;29;20054;-64
2022/01/12 07:45:36;;;;;;;241.37;21.80;;;2.20;99.90;;;;;;4854274;29;20093;-65
2022/01/12 07:48:02;;;;;;;210.68;22.17;;;2.20;99.90;;;;;;4836917;29;20057;-65
2022/01/12 07:50:28;;;;;;;217.68;21.63;;;2.20;99.90;;;;;;4837780;29;20112;-64
2022/01/12 07:52:53;;;;;;;133.30;17.87;;;2.10;99.90;;;;;;4837217;29;20061;-65
2022/01/12 07:55:21;;;;;;;127.68;19.13;;;2.10;99.90;;;;;;4808370;29;20061;-65
2022/01/12 07:57:47;;;;;;;97.55;15.95;;;2.10;99.90;;;;;;4820049;29;20134;-65
2022/01/12 08:00:14;;;;;;;155.63;20.02;;;2.10;99.90;;;;;;4837502;29;20058;-66
2022/01/12 08:02:40;;;;;;;;;;;2.10;99.90;;;;;;4854247;29;20046;-66
2022/01/12 08:05:06;;;;;;;183.25;17.90;;;2.00;99.90;;;;;;4837080;29;19996;-66
2022/01/12 08:07:35;;;;;;;169.65;18.33;;;2.00;99.90;;;;;;4836488;29;20057;-64
2022/01/12 08:10:06;;;;;;;89.82;15.20;;;2.00;99.90;;;;;;4821790;29;20049;-66
2022/01/12 08:12:32;;;;;;;141.73;19.33;;;2.10;99.90;;;;;;4837070;29;20128;-66
2022/01/12 08:14:57;;;;;;;129.75;18.13;;;2.00;99.90;;;;;;4836693;29;20099;-65
2022/01/12 08:17:23;;;;;;;108.43;16.07;;;2.00;99.90;;;;;;4853510;29;20070;-66
2022/01/12 08:19:51;;;;;;;104.57;17.40;;;2.00;99.90;;;;;;4837256;29;20057;-65
2022/01/12 08:22:16;;;;;;;114.03;19.17;;;2.00;99.90;;;;;;4836799;29;20086;-65
2022/01/12 08:24:42;;;;;;;89.40;16.67;;;2.00;99.90;;;;;;4853181;29;20077;-65
2022/01/12 08:27:08;;;;;;;47.47;16.17;;;2.00;99.90;;;;;;4851267;29;20122;-65
2022/01/12 08:29:34;;;;;;;75.70;18.83;;;2.10;99.90;;;;;;4835833;29;20051;-63
2022/01/12 08:32:00;;;;;;;87.55;17.60;;;2.10;99.90;;;;;;4836762;29;20046;-64
2022/01/12 08:34:26;;;;;;;116.40;19.17;;;2.10;99.90;;;;;;4852261;29;20046;-63
2022/01/12 08:36:51;;;;;;;144.32;18.73;;;2.20;99.90;;;;;;4835848;29;20053;-64
2022/01/12 08:39:17;;;;;;;103.13;18.63;;;2.20;99.90;;;;;;4852992;29;20390;-63
2022/01/12 08:41:43;;;;;;;127.43;18.03;;;2.20;99.90;;;;;;4853423;29;20358;-63
2022/01/12 08:44:09;;;;;;;167.13;19.08;;;2.20;99.90;;;;;;4816538;29;20142;-64
2022/01/12 08:46:37;;;;;;;173.40;20.15;;;2.30;99.90;;;;;;4839287;29;20535;-63
2022/01/12 08:49:04;;;;;;;116.30;17.92;;;2.30;99.90;;;;;;4836109;29;20110;-63
2022/01/12 08:51:29;;;;;;;190.93;22.73;;;2.30;99.90;;;;;;4836664;29;20085;-63
2022/01/12 08:53:55;;;;;;;151.20;18.37;;;2.40;99.90;;;;;;4836021;29;20117;-63
2022/01/12 08:56:21;;;;;;;191.17;18.87;;;2.40;99.90;;;;;;4836173;29;20078;-63
2022/01/12 08:58:48;;;;;;;181.50;19.17;;;2.40;99.90;;;;;;4853197;29;20045;-63
2022/01/12 09:01:14;;;;;;;197.13;19.60;;;2.50;99.90;;;;;;4836437;29;20110;-63
2022/01/12 09:03:40;;;;;;;135.00;17.13;;;2.50;99.90;;;;;;4859639;29;20088;-63
2022/01/12 09:06:06;;;;;;;169.07;20.80;;;2.50;99.90;;;;;;4842749;29;20052;-63
2022/01/12 09:08:34;;;;;;;87.25;15.95;;;2.50;99.90;;;;;;4863487;29;20480;-63
2022/01/12 09:11:00;;;;;;;134.75;18.75;;;2.60;99.90;;;;;;4856142;29;20058;-63
2022/01/12 09:13:25;;;;;;;122.00;18.20;;;2.60;99.90;;;;;;4841187;29;20073;-66
2022/01/12 09:15:51;;;;;;;172.17;23.20;;;2.60;99.90;;;;;;4854541;29;20062;-65
2022/01/12 09:18:18;;;;;;;189.00;19.63;;;2.70;99.90;;;;;;4821245;29;20042;-67
2022/01/12 09:20:45;;;;;;;161.63;17.50;;;2.70;99.90;;;;;;4852680;29;20166;-69
2022/01/12 09:23:10;;;;;;;186.32;19.48;;;2.70;99.90;;;;;;4852408;29;20069;-65
2022/01/12 09:25:39;;;;;;;205.73;21.58;;;2.80;99.90;;;;;;4852468;29;20050;-68
2022/01/12 09:28:06;;;;;;;148.02;17.95;;;2.80;99.90;;;;;;4833478;29;20068;-65
2022/01/12 09:30:32;;;;;;;226.50;19.88;;;2.90;99.90;;;;;;4834544;29;20069;-67
2022/01/12 09:32:59;;;;;;;184.25;17.85;;;2.90;99.90;;;;;;4835944;29;20058;-64
2022/01/12 09:35:25;;;;;;;187.45;15.40;;;2.90;99.90;;;;;;4835453;29;20050;-64
2022/01/12 09:37:50;;;;;;;140.68;14.57;;;3.00;99.90;;;;;;4851722;29;20127;-64
2022/01/12 09:40:16;;;;;;;175.47;14.47;;;3.00;99.90;;;;;;4852444;29;20062;-65
2022/01/12 09:42:44;;;;;;;182.73;15.67;;;3.00;99.90;;;;;;4834912;29;20049;-65
2022/01/12 09:45:14;;;;;;;209.18;15.77;;;3.00;99.90;;;;;;4851415;29;20311;-65
2022/01/12 09:47:40;;;;;;;141.57;12.77;;;3.10;99.90;;;;;;4834652;29;20054;-67
2022/01/12 09:50:06;;;;;;;119.38;11.98;;;3.10;99.90;;;;;;4835489;29;20064;-65
2022/01/12 09:52:32;;;;;;;130.02;12.90;;;3.10;99.90;;;;;;4834965;29;20082;-64
2022/01/12 09:54:58;;;;;;;145.63;13.55;;;3.10;99.90;;;;;;4857659;29;20053;-65
2022/01/12 09:57:24;;;;;;;107.53;11.90;;;3.10;99.90;;;;;;4858712;29;20125;-65
2022/01/12 09:59:49;;;;;;;94.57;10.87;;;3.10;99.90;;;;;;4836270;29;20061;-66
2022/01/12 10:02:17;;;;;;;119.37;15.03;;;3.10;99.90;;;;;;4850147;29;20122;-65
2022/01/12 10:04:43;;;;;;;136.25;14.90;;;3.20;99.90;;;;;;4835015;29;20148;-66
2022/01/12 10:07:10;;;;;;;82.03;12.68;;;3.20;99.90;;;;;;4851595;29;20077;-67
2022/01/12 10:09:44;;;;;;;84.53;11.25;;;3.20;99.90;;;;;;4834536;29;20081;-67
2022/01/12 10:12:24;;;;;;;128.50;14.88;;;3.30;99.90;;;;;;4815726;29;20046;-68
2022/01/12 10:14:59;;;;;;;150.40;15.52;;;3.40;99.90;;;;;;4847814;29;20086;-68
2022/01/12 10:17:36;;;;;;;112.80;13.77;;;3.40;99.90;;;;;;4834793;29;20050;-68
2022/01/12 10:20:14;;;;;;;66.05;12.10;;;3.40;99.90;;;;;;4834627;29;20097;-68
2022/01/12 10:23:08;;;;;;;60.72;11.85;;;3.50;99.90;;;;;;4851245;29;20063;-68
2022/01/12 10:25:35;;;;;;;88.57;14.35;;;3.50;99.90;;;;;;4834841;29;20054;-68
2022/01/12 10:28:13;;;;;;;91.15;13.70;;;3.60;99.90;;;;;;4850896;29;20065;-68
2022/01/12 10:30:39;;;;;;;65.63;12.90;;;3.60;99.90;;;;;;4850213;29;20179;-68
2022/01/12 10:33:10;;;;;;;84.47;11.85;;;3.70;99.90;;;;;;4834570;29;20061;-68
2022/01/12 10:35:40;;;;;;;90.93;13.15;;;3.70;99.90;;;;;;4834784;29;20473;-68
2022/01/12 10:38:14;;;;;;;50.10;11.65;;;3.70;99.90;;;;;;4834433;29;20053;-68
2022/01/12 10:40:45;;;;;;;67.15;13.05;;;3.70;99.90;;;;;;4834392;29;20152;-68
2022/01/12 10:43:35;;;;;;;78.80;12.55;;;3.80;99.90;;;;;;4834336;29;20057;-68
2022/01/12 10:46:10;;;;;;;52.35;12.23;;;3.80;99.90;;;;;;4851140;29;20061;-68
2022/01/12 10:48:51;;;;;;;49.55;11.57;;;3.80;99.90;;;;;;4834444;29;20177;-68
2022/01/12 10:51:22;;;;;;;48.25;12.35;;;3.90;99.90;;;;;;4834415;29;20057;-68
2022/01/12 10:53:50;;;;;;;70.25;14.55;;;3.90;99.90;;;;;;4850457;29;20040;-67
2022/01/12 10:56:21;;;;;;;50.88;12.48;;;3.90;99.90;;;;;;4849082;29;20543;-66
2022/01/12 10:58:48;;;;;;;46.15;12.20;;;4.00;99.90;;;;;;4850522;29;20088;-66
2022/01/12 11:01:17;;;;;;;40.60;12.70;;;4.00;99.90;;;;;;4851109;29;20049;-66
2022/01/12 11:03:44;;;;;;;43.40;12.32;;;4.10;99.90;;;;;;4850732;29;20166;-63
2022/01/12 11:06:10;;;;;;;46.55;12.45;;;4.10;99.90;;;;;;4850537;29;20540;-65
2022/01/12 11:08:37;;;;;;;38.30;10.98;;;4.10;99.90;;;;;;4834305;29;20053;-65
2022/01/12 11:11:04;;;;;;;52.80;13.93;;;4.20;99.90;;;;;;4834196;29;20089;-65
2022/01/12 11:13:32;;;;;;;38.83;12.32;;;4.20;99.90;;;;;;4834120;29;20100;-65
2022/01/12 11:15:58;;;;;;;38.90;12.18;;;4.20;99.90;;;;;;4834089;29;20125;-65
2022/01/12 11:18:35;;;;;;;34.33;12.23;;;4.20;99.90;;;;;;4849356;29;20042;-64
2022/01/12 11:21:03;;;;;;;;;;;4.30;99.90;;;;;;4850585;29;20054;-62
2022/01/12 11:23:38;;;;;;;36.08;12.10;;;4.30;99.90;;;;;;4834182;29;19944;-62
2022/01/12 11:26:16;;;;;;;41.28;12.50;;;4.40;99.90;;;;;;4829758;29;20474;-62
2022/01/12 11:28:43;;;;;;;39.28;12.68;;;4.40;99.90;;;;;;4826244;29;20089;-62
2022/01/12 11:31:09;;;;;;;47.05;13.85;;;4.40;99.90;;;;;;4849947;29;20050;-63
2022/01/12 11:33:42;;;;;;;38.05;13.15;;;4.50;99.90;;;;;;4850766;29;20774;-63
2022/01/12 11:36:18;;;;;;;39.30;13.30;;;4.50;99.90;;;;;;4830962;29;20134;-63
2022/01/12 11:38:47;;;;;;;49.38;12.88;;;4.50;99.90;;;;;;4833340;29;20042;-63
2022/01/12 11:41:28;;;;;;;37.35;12.80;;;4.60;99.90;;;;;;4834033;29;20053;-63
2022/01/12 11:44:03;;;;;;;37.80;13.23;;;4.60;99.90;;;;;;4850805;29;20132;-63
2022/01/12 11:46:43;;;;;;;52.08;13.43;;;4.70;99.90;;;;;;4821483;29;20156;-63
2022/01/12 11:49:09;;;;;;;35.88;13.27;;;4.80;99.90;;;;;;4833284;29;20042;-63
2022/01/12 11:51:43;;;;;;;36.05;13.00;;;4.80;99.90;;;;;;4850577;29;20042;-63
2022/01/12 11:54:15;;;;;;;36.08;13.50;;;4.90;99.90;;;;;;4848910;29;20058;-62
2022/01/12 11:56:58;;;;;;;47.92;13.88;;;4.90;99.90;;;;;;4850509;29;20102;-63
2022/01/12 11:59:27;;;;;;;39.67;13.77;;;4.90;99.90;;;;;;4833752;29;20062;-62
2022/01/12 12:02:06;;;;;;;58.25;14.80;;;4.90;99.90;;;;;;4815193;29;20061;-63
2022/01/12 12:04:33;;;;;;;45.78;14.80;;;4.90;99.90;;;;;;4833166;29;20474;-63
2022/01/12 12:07:09;;;;;;;49.22;14.75;;;5.00;99.90;;;;;;4849063;29;20060;-61
2022/01/12 12:09:53;;;;;;;39.30;14.40;;;5.00;99.90;;;;;;4851322;29;20054;-63
2022/01/12 12:12:20;;;;;;;46.78;15.20;;;5.10;99.90;;;;;;4832859;29;20067;-68
2022/01/12 12:14:48;;;;;;;52.65;14.90;;;5.10;99.90;;;;;;4827204;29;20054;-65
2022/01/12 12:17:16;;;;;;;59.70;16.45;;;5.10;99.90;;;;;;4853979;29;20342;-65
2022/01/12 12:19:42;;;;;;;46.72;16.05;;;5.20;99.90;;;;;;4811085;29;20083;-65
2022/01/12 12:22:16;;;;;;;50.95;16.63;;;5.20;99.90;;;;;;4853484;29;20501;-62
2022/01/12 12:24:44;;;;;;;54.33;15.52;;;5.20;99.90;;;;;;4831404;29;20045;-65
2022/01/12 12:27:11;;;;;;;52.63;15.05;;;5.30;99.90;;;;;;4836788;29;20066;-64
2022/01/12 12:29:38;;;;;;;61.40;17.02;;;5.30;99.90;;;;;;4845628;29;20187;-67
2022/01/12 12:32:05;;;;;;;;;;;5.30;99.90;;;;;;4837840;29;20053;-66
2022/01/12 12:34:33;;;;;;;56.17;17.02;;;5.30;99.90;;;;;;4836358;29;19943;-66
2022/01/12 12:37:16;;;;;;;59.83;16.52;;;5.40;99.90;;;;;;4821719;29;20058;-66
2022/01/12 12:39:45;;;;;;;64.25;17.17;;;5.40;99.90;;;;;;4853084;29;20386;-68
2022/01/12 12:42:20;;;;;;;59.75;17.08;;;5.40;99.90;;;;;;4821534;29;20058;-64
2022/01/12 12:44:48;;;;;;;56.33;16.40;;;5.50;99.90;;;;;;4833673;29;20062;-63
2022/01/12 12:47:18;;;;;;;53.20;16.65;;;5.50;99.90;;;;;;4827883;29;20117;-66
2022/01/12 12:49:53;;;;;;;52.97;16.52;;;5.50;99.90;;;;;;4836118;29;20058;-67
2022/01/12 12:52:28;;;;;;;54.55;17.48;;;5.50;99.90;;;;;;4835165;29;20057;-68
2022/01/12 12:54:55;;;;;;;50.25;17.38;;;5.60;99.90;;;;;;4842083;29;20081;-68
2022/01/12 12:57:21;;;;;;;69.00;18.67;;;5.60;99.90;;;;;;4859786;29;20078;-65
2022/01/12 13:00:11;;;;;;;64.00;18.40;;;5.60;99.90;;;;;;4835990;29;20062;-65
2022/01/12 13:02:39;;;;;;;57.15;17.50;;;5.70;99.90;;;;;;4845071;29;20054;-66
2022/01/12 13:05:07;;;;;;;50.40;16.55;;;5.70;99.90;;;;;;4835739;29;20541;-65
2022/01/12 13:07:38;;;;;;;55.50;17.33;;;5.70;99.90;;;;;;4851143;29;20112;-66
2022/01/12 13:10:25;;;;;;;49.88;16.65;;;5.70;99.90;;;;;;4835866;29;20094;-66
2022/01/12 13:12:53;;;;;;;53.10;18.20;;;5.70;99.90;;;;;;4826764;29;20043;-65
2022/01/12 13:15:25;;;;;;;45.05;16.50;;;5.70;99.90;;;;;;4839685;29;20113;-65
2022/01/12 13:18:12;;;;;;;48.42;17.27;;;5.70;99.90;;;;;;4835335;29;20077;-65
2022/01/12 13:23:29;;;;;;;41.00;15.35;;;5.60;99.90;;;;;;4817783;29;20134;-65
2022/01/12 13:26:06;;;;;;;50.58;16.08;;;5.60;99.90;;;;;;4813939;29;20129;-65
2022/01/12 13:28:37;;;;;;;39.65;15.25;;;5.60;99.90;;;;;;4839256;29;20094;-65
2022/01/12 13:31:07;;;;;;;43.35;15.80;;;5.60;99.90;;;;;;4835504;29;20057;-66
2022/01/12 13:33:43;;;;;;;40.15;15.10;;;5.50;99.90;;;;;;4835793;29;20052;-65
2022/01/12 13:36:16;;;;;;;40.40;15.50;;;5.50;99.90;;;;;;4834568;29;20062;-65
2022/01/12 13:38:46;;;;;;;50.70;15.32;;;5.40;99.90;;;;;;4835442;29;20110;-65
2022/01/12 13:41:17;;;;;;;38.22;16.05;;;5.40;99.90;;;;;;4819874;29;20106;-65
2022/01/12 13:43:51;;;;;;;44.45;16.25;;;5.40;99.90;;;;;;4802359;29;20099;-65
2022/01/12 13:46:18;;;;;;;40.72;14.52;;;5.40;99.90;;;;;;4838112;29;20053;-63
2022/01/12 13:49:32;;;;;;;42.40;15.38;;;5.40;99.90;;;;;;4817320;29;20420;-65
2022/01/12 13:51:40;;;;;;;32.55;14.32;;;5.40;99.90;;;;;;4824712;29;20073;-66
2022/01/12 13:54:10;;;;;;;44.08;14.98;;;5.40;99.90;;;;;;4844955;29;20065;-71
2022/01/12 13:56:51;;;;;;;37.55;14.73;;;5.40;99.90;;;;;;4834872;29;20117;-66
2022/01/12 13:59:18;;;;;;;34.88;14.65;;;5.40;99.90;;;;;;4851742;29;20447;-66
2022/01/12 14:01:45;;;;;;;38.65;13.52;;;5.40;99.90;;;;;;4851840;29;20064;-67
2022/01/12 14:04:21;;;;;;;39.92;13.80;;;5.40;99.90;;;;;;4852029;29;20050;-67
2022/01/12 14:06:51;;;;;;;36.17;14.02;;;5.40;99.90;;;;;;4851105;29;20038;-68